createdAt,value
2022-10-24T00:00:17.047Z,12.60
2022-10-24T00:04:18.507Z,12.73
2022-10-24T00:08:19.883Z,12.58
2022-10-24T00:16:28.142Z,12.47
2022-10-24T00:20:29.676Z,12.64
2022-10-24T00:24:31.103Z,12.75
2022-10-24T00:28:34.671Z,12.68
2022-10-24T00:32:36.128Z,12.77
2022-10-24T00:36:37.555Z,12.50
2022-10-24T00:40:39.354Z,12.62
2022-10-24T00:44:42.051Z,12.55
2022-10-24T00:48:54.803Z,12.36
2022-10-24T00:52:56.397Z,12.35
2022-10-24T00:57:27.381Z,12.27
2022-10-24T01:01:28.926Z,12.41
2022-10-24T01:05:40.038Z,12.34
2022-10-24T01:09:58.854Z,12.52
2022-10-24T01:14:15.540Z,12.58
2022-10-24T01:18:42.120Z,12.55
2022-10-24T01:23:08.705Z,12.35
2022-10-24T01:27:33.519Z,12.51
2022-10-24T01:31:48.699Z,12.46
2022-10-24T01:35:56.679Z,12.59
2022-10-24T01:40:06.452Z,12.50
2022-10-24T01:44:20.965Z,12.48
2022-10-24T01:48:25.411Z,12.50
2022-10-24T01:52:31.248Z,12.53
2022-10-24T01:56:33.138Z,12.12
2022-10-24T02:00:35.285Z,12.07
2022-10-24T02:04:43.521Z,12.20
2022-10-24T02:08:54.851Z,12.19
2022-10-24T02:13:01.929Z,12.18
2022-10-24T02:17:04.203Z,11.92
2022-10-24T02:21:36.467Z,11.78
2022-10-24T02:25:47.225Z,11.96
2022-10-24T02:30:03.328Z,11.88
2022-10-24T02:34:07.921Z,11.92
2022-10-24T02:38:18.301Z,12.00
2022-10-24T02:42:21.284Z,11.92
2022-10-24T02:46:24.839Z,11.85
2022-10-24T02:50:27.052Z,11.88
2022-10-24T02:54:28.468Z,11.85
2022-10-24T02:58:29.848Z,11.67
2022-10-24T03:02:31.204Z,11.74
2022-10-24T03:06:32.613Z,11.81
2022-10-24T03:10:34.076Z,11.87
2022-10-24T03:14:35.489Z,11.83
2022-10-24T03:18:36.893Z,11.81
2022-10-24T03:22:38.249Z,11.83
2022-10-24T03:26:39.651Z,11.73
2022-10-24T03:30:41.036Z,11.58
2022-10-24T03:34:42.483Z,11.68
2022-10-24T03:38:44.187Z,11.67
2022-10-24T03:42:45.767Z,11.66
2022-10-24T03:46:47.462Z,11.59
2022-10-24T03:50:48.822Z,11.64
2022-10-24T03:54:52.701Z,11.49
2022-10-24T03:58:54.081Z,11.58
2022-10-24T04:02:56.008Z,11.48
2022-10-24T04:06:58.523Z,11.52
2022-10-24T04:11:00.035Z,11.37
2022-10-24T04:15:04.750Z,11.36
2022-10-24T04:19:06.611Z,11.36
2022-10-24T04:23:07.962Z,11.38
2022-10-24T04:27:09.929Z,11.40
2022-10-24T04:31:11.340Z,11.33
2022-10-24T04:35:14.203Z,11.42
2022-10-24T04:39:15.760Z,11.42
2022-10-24T04:43:17.241Z,11.43
2022-10-24T04:51:25.110Z,11.43
2022-10-24T04:55:26.602Z,11.37
2022-10-24T04:59:28.141Z,11.39
2022-10-24T05:03:29.668Z,11.40
2022-10-24T05:07:31.048Z,11.43
2022-10-24T05:11:32.917Z,11.43
2022-10-24T05:15:34.324Z,11.47
2022-10-24T05:19:36.324Z,11.40
2022-10-24T05:23:37.697Z,11.49
2022-10-24T05:27:39.248Z,11.56
2022-10-24T05:31:40.920Z,11.46
2022-10-24T05:35:42.333Z,11.43
2022-10-24T05:39:43.752Z,11.52
2022-10-24T05:43:45.158Z,11.52
2022-10-24T05:47:46.979Z,11.54
2022-10-24T05:51:48.557Z,11.62
2022-10-24T05:55:49.931Z,11.58
2022-10-24T05:59:51.544Z,11.63
2022-10-24T06:03:53.004Z,11.63
2022-10-24T06:07:54.388Z,11.61
2022-10-24T06:11:55.741Z,11.56
2022-10-24T06:15:57.212Z,11.49
2022-10-24T06:19:58.592Z,11.46
2022-10-24T06:23:59.962Z,11.41
2022-10-24T06:28:01.934Z,11.37
2022-10-24T06:32:03.833Z,11.52
2022-10-24T06:36:09.330Z,11.54
2022-10-24T06:40:11.501Z,11.60
2022-10-24T06:44:12.979Z,11.67
2022-10-24T06:48:14.437Z,11.71
2022-10-24T06:52:15.786Z,11.76
2022-10-24T06:56:18.172Z,11.88
2022-10-24T07:00:19.616Z,11.80
2022-10-24T07:04:21.030Z,11.87
2022-10-24T07:08:22.490Z,11.96
2022-10-24T07:12:24.535Z,11.97
2022-10-24T07:16:26.318Z,12.00
2022-10-24T07:20:27.775Z,12.15
2022-10-24T07:24:29.187Z,12.31
2022-10-24T07:28:30.594Z,12.34
2022-10-24T07:32:32.019Z,12.47
2022-10-24T07:36:33.735Z,12.58
2022-10-24T07:40:35.369Z,12.76
2022-10-24T07:44:36.790Z,12.88
2022-10-24T07:48:39.057Z,12.92
2022-10-24T07:52:40.468Z,13.14
2022-10-24T07:56:41.870Z,13.24
2022-10-24T08:00:45.432Z,13.28
2022-10-24T08:04:47.156Z,13.44
2022-10-24T08:08:49.041Z,13.53
2022-10-24T08:12:50.447Z,13.72
2022-10-24T08:16:51.818Z,13.89
2022-10-24T08:20:58.631Z,13.90
2022-10-24T08:25:01.393Z,14.10
2022-10-24T08:29:04.415Z,14.23
2022-10-24T08:33:05.945Z,14.33
2022-10-24T08:37:07.331Z,14.45
2022-10-24T08:41:15.859Z,14.60
2022-10-24T08:45:23.643Z,14.70
2022-10-24T08:49:40.830Z,14.89
2022-10-24T08:53:42.281Z,15.01
2022-10-24T08:57:49.357Z,15.06
2022-10-24T09:02:00.536Z,15.04
2022-10-24T09:06:16.827Z,15.24
2022-10-24T09:10:35.927Z,15.34
2022-10-24T09:14:40.669Z,15.53
2022-10-24T09:18:44.742Z,15.63
2022-10-24T09:22:46.313Z,15.69
2022-10-24T09:26:48.043Z,15.60
2022-10-24T09:30:50.661Z,15.71
2022-10-24T09:34:53.730Z,15.83
2022-10-24T09:38:55.151Z,15.91
2022-10-24T09:43:02.405Z,15.97
2022-10-24T09:47:06.579Z,16.00
2022-10-24T09:51:08.341Z,16.06
2022-10-24T09:55:22.331Z,16.08
2022-10-24T09:59:31.852Z,16.21
2022-10-24T10:03:35.209Z,16.22
2022-10-24T10:07:37.876Z,16.36
2022-10-24T10:11:40.842Z,16.35
2022-10-24T10:16:02.509Z,16.32
2022-10-24T10:20:04.314Z,16.50
2022-10-24T10:24:25.056Z,16.39
2022-10-24T10:28:26.442Z,16.40
2022-10-24T10:32:38.455Z,16.56
2022-10-24T10:37:30.254Z,16.49
2022-10-24T10:41:44.686Z,16.52
2022-10-24T10:46:04.667Z,16.61
2022-10-24T10:50:32.496Z,16.51
2022-10-24T10:55:02.444Z,16.55
2022-10-24T10:59:18.320Z,16.62
2022-10-24T11:03:43.298Z,16.58
2022-10-24T11:07:56.301Z,16.61
2022-10-24T11:12:07.453Z,16.67
2022-10-24T11:16:15.517Z,16.85
2022-10-24T11:20:40.226Z,16.72
2022-10-24T11:24:49.040Z,16.77
2022-10-24T11:29:23.844Z,16.82
2022-10-24T11:33:34.660Z,16.86
2022-10-24T11:37:41.150Z,16.73
2022-10-24T11:41:52.121Z,16.78
2022-10-24T11:46:01.575Z,16.85
2022-10-24T11:50:17.485Z,16.88
2022-10-24T11:54:42.755Z,16.90
2022-10-24T11:58:58.928Z,17.00
2022-10-24T12:03:18.796Z,16.97
2022-10-24T12:07:39.054Z,16.93
2022-10-24T12:12:08.419Z,17.07
2022-10-24T12:16:47.502Z,17.17
2022-10-24T12:21:00.429Z,17.04
2022-10-24T12:25:14.793Z,17.04
2022-10-24T12:29:24.040Z,17.06
2022-10-24T12:33:27.509Z,17.18
2022-10-24T12:37:28.906Z,17.13
2022-10-24T12:41:33.312Z,17.38
2022-10-24T12:45:34.746Z,17.65
2022-10-24T12:49:36.172Z,17.60
2022-10-24T12:54:02.094Z,17.44
2022-10-24T12:58:24.473Z,17.45
2022-10-24T13:02:31.862Z,17.58
2022-10-24T13:06:45.439Z,17.93
2022-10-24T13:11:01.668Z,18.08
2022-10-24T13:15:24.864Z,18.30
2022-10-24T13:19:27.335Z,18.94
2022-10-24T13:23:29.327Z,18.51
2022-10-24T13:27:31.826Z,18.92
2022-10-24T13:31:33.169Z,19.05
2022-10-24T13:35:35.463Z,18.43
2022-10-24T13:39:49.388Z,18.42
2022-10-24T13:43:54.205Z,18.40
2022-10-24T13:48:01.397Z,18.09
2022-10-24T13:52:25.956Z,18.07
2022-10-24T13:56:30.862Z,17.78
2022-10-24T14:00:46.456Z,17.82
2022-10-24T14:04:49.622Z,17.65
2022-10-24T14:09:05.427Z,17.51
2022-10-24T14:13:16.421Z,17.51
2022-10-24T14:17:26.883Z,17.39
2022-10-24T14:21:28.631Z,17.41
2022-10-24T14:25:35.179Z,17.42
2022-10-24T14:29:36.643Z,17.53
2022-10-24T14:33:48.023Z,17.51
2022-10-24T14:37:51.691Z,17.59
2022-10-24T14:41:54.048Z,17.42
2022-10-24T14:46:29.328Z,17.70
2022-10-24T14:50:45.070Z,17.86
2022-10-24T14:54:59.678Z,17.73
2022-10-24T14:59:04.272Z,17.66
2022-10-24T15:03:06.323Z,17.46
2022-10-24T15:07:22.974Z,17.47
2022-10-24T15:11:28.219Z,17.29
2022-10-24T15:15:34.261Z,17.26
2022-10-24T15:19:39.078Z,17.13
2022-10-24T15:23:58.743Z,17.01
2022-10-24T15:28:01.606Z,16.94
2022-10-24T15:32:06.181Z,16.87
2022-10-24T15:36:17.247Z,16.85
2022-10-24T15:40:29.290Z,16.77
2022-10-24T15:44:31.183Z,16.65
2022-10-24T15:48:32.747Z,16.56
2022-10-24T15:52:34.673Z,16.66
2022-10-24T15:56:36.078Z,16.46
2022-10-24T16:00:37.630Z,16.46
2022-10-24T16:04:40.290Z,16.41
2022-10-24T16:08:41.711Z,16.27
2022-10-24T16:12:43.557Z,16.22
2022-10-24T16:16:45.482Z,16.16
2022-10-24T16:20:47.360Z,16.19
2022-10-24T16:24:48.853Z,16.21
2022-10-24T16:28:50.283Z,16.09
2022-10-24T16:32:51.784Z,16.08
2022-10-24T16:36:56.078Z,16.07
2022-10-24T16:40:58.236Z,16.07
2022-10-24T16:44:59.741Z,16.02
2022-10-24T16:49:01.211Z,16.05
2022-10-24T16:53:06.753Z,15.96
2022-10-24T16:57:08.157Z,15.90
2022-10-24T17:01:12.574Z,15.92
2022-10-24T17:05:15.290Z,15.89
2022-10-24T17:09:16.707Z,15.79
2022-10-24T17:13:18.089Z,15.74
2022-10-24T17:17:19.487Z,15.72
2022-10-24T17:21:27.786Z,15.75
2022-10-24T17:25:29.560Z,15.60
2022-10-24T17:29:33.377Z,15.59
2022-10-24T17:33:37.154Z,15.52
2022-10-24T17:37:52.352Z,15.47
2022-10-24T17:41:54.528Z,15.42
2022-10-24T17:45:57.602Z,15.39
2022-10-24T17:49:58.995Z,15.25
2022-10-24T17:54:00.377Z,15.32
2022-10-24T17:58:01.960Z,15.11
2022-10-24T18:02:03.726Z,15.04
2022-10-24T18:06:07.334Z,15.00
2022-10-24T18:10:09.387Z,14.92
2022-10-24T18:14:10.790Z,14.99
2022-10-24T18:18:12.230Z,14.94
2022-10-24T18:22:13.645Z,14.84
2022-10-24T18:26:17.995Z,14.88
2022-10-24T18:30:19.817Z,14.93
2022-10-24T18:34:21.271Z,14.89
2022-10-24T18:38:22.690Z,14.85
2022-10-24T18:42:29.971Z,14.88
2022-10-24T18:46:31.775Z,14.88
2022-10-24T18:50:33.365Z,14.93
2022-10-24T18:54:51.257Z,14.92
2022-10-24T18:58:57.176Z,14.97
2022-10-24T19:03:19.330Z,14.95
2022-10-24T19:07:20.937Z,14.98
2022-10-24T19:11:24.296Z,14.94
2022-10-24T19:15:25.947Z,15.00
2022-10-24T19:19:34.331Z,15.05
2022-10-24T19:23:37.131Z,15.01
2022-10-24T19:27:38.801Z,15.00
2022-10-24T19:31:40.322Z,14.98
2022-10-24T19:35:46.824Z,15.03
2022-10-24T19:39:48.417Z,14.94
2022-10-24T19:43:52.995Z,14.84
2022-10-24T19:47:55.266Z,14.94
2022-10-24T19:51:57.641Z,14.88
2022-10-24T19:56:04.614Z,14.82
2022-10-24T20:00:06.537Z,14.84
2022-10-24T20:04:07.990Z,14.82
2022-10-24T20:08:09.363Z,14.77
2022-10-24T20:12:10.749Z,14.70
2022-10-24T20:16:13.333Z,14.74
2022-10-24T20:20:14.745Z,14.68
2022-10-24T20:24:16.246Z,14.55
2022-10-24T20:28:17.624Z,14.59
2022-10-24T20:32:19.035Z,14.65
2022-10-24T20:36:23.476Z,14.63
2022-10-24T20:40:25.091Z,14.39
2022-10-24T20:44:31.879Z,14.20
2022-10-24T20:48:34.495Z,14.22
2022-10-24T20:52:35.911Z,13.95
2022-10-24T20:56:42.036Z,13.84
2022-10-24T21:00:44.019Z,13.78
2022-10-24T21:04:45.403Z,13.73
2022-10-24T21:08:48.677Z,13.76
2022-10-24T21:12:50.673Z,13.78
2022-10-24T21:16:52.737Z,13.72
2022-10-24T21:20:56.637Z,13.67
2022-10-24T21:24:58.042Z,13.53
2022-10-24T21:29:08.928Z,13.64
2022-10-24T21:33:23.611Z,13.62
2022-10-24T21:37:25.028Z,13.42
2022-10-24T21:41:27.871Z,13.43
2022-10-24T21:45:31.137Z,13.36
2022-10-24T21:49:32.787Z,13.29
2022-10-24T21:53:42.401Z,13.46
2022-10-24T21:57:43.743Z,13.29
2022-10-24T22:01:46.684Z,13.26
2022-10-24T22:05:56.262Z,13.27
2022-10-24T22:09:57.615Z,13.18
2022-10-24T22:13:59.510Z,13.09
2022-10-24T22:18:00.883Z,13.14
2022-10-24T22:22:02.243Z,13.02
2022-10-24T22:26:04.594Z,12.89
2022-10-24T22:30:06.691Z,12.87
2022-10-24T22:34:08.247Z,12.96
2022-10-24T22:38:09.874Z,12.95
2022-10-24T22:42:14.707Z,12.95
2022-10-24T22:46:51.583Z,12.88
2022-10-24T22:50:55.208Z,12.86
2022-10-24T22:54:56.873Z,12.89
2022-10-24T22:58:59.070Z,12.86
2022-10-24T23:03:27.979Z,12.88
2022-10-24T23:07:41.566Z,12.78
2022-10-24T23:11:43.187Z,12.81
2022-10-24T23:15:44.688Z,12.85
2022-10-24T23:19:46.830Z,12.79
2022-10-24T23:23:48.453Z,12.70
2022-10-24T23:27:58.712Z,12.78
2022-10-24T23:32:01.473Z,12.68
2022-10-24T23:36:03.116Z,12.81
2022-10-24T23:40:29.301Z,12.65
2022-10-24T23:44:31.031Z,12.61
2022-10-24T23:48:50.091Z,12.54
2022-10-24T23:53:12.426Z,12.21
2022-10-24T23:57:17.235Z,12.42
